createdAt,value
2019-05-02T00:02:32.914Z,79.31
2019-05-02T00:05:08.581Z,79.26
2019-05-02T00:07:42.026Z,79.11
2019-05-02T00:10:15.175Z,79.44
2019-05-02T00:12:47.242Z,79.65
2019-05-02T00:15:19.245Z,79.51
2019-05-02T00:17:50.547Z,79.75
2019-05-02T00:20:25.934Z,79.50
2019-05-02T00:22:54.801Z,79.42
2019-05-02T00:25:26.234Z,79.01
2019-05-02T00:27:57.563Z,79.07
2019-05-02T00:30:30.015Z,79.48
2019-05-02T00:33:02.048Z,79.46
2019-05-02T00:35:33.283Z,79.65
2019-05-02T00:38:05.487Z,79.41
2019-05-02T00:40:36.846Z,79.45
2019-05-02T00:43:08.099Z,79.57
2019-05-02T00:45:39.751Z,79.88
2019-05-02T00:48:32.551Z,80.14
2019-05-02T00:51:04.180Z,80.04
2019-05-02T00:53:35.729Z,79.84
2019-05-02T00:56:09.098Z,79.62
2019-05-02T00:58:40.396Z,79.89
2019-05-02T01:01:31.378Z,79.99
2019-05-02T01:04:08.616Z,79.89
2019-05-02T01:06:39.858Z,79.87
2019-05-02T01:09:12.976Z,79.86
2019-05-02T01:11:44.390Z,79.62
2019-05-02T01:14:15.975Z,79.86
2019-05-02T01:16:49.516Z,79.56
2019-05-02T01:19:20.188Z,79.82
2019-05-02T01:21:52.063Z,80.41
2019-05-02T01:24:23.421Z,80.49
2019-05-02T01:27:04.529Z,80.55
2019-05-02T01:30:01.694Z,80.21
2019-05-02T01:32:44.376Z,80.53
2019-05-02T01:35:27.050Z,80.45
2019-05-02T01:38:16.027Z,81.03
2019-05-02T01:40:53.208Z,80.90
2019-05-02T01:43:26.341Z,80.67
2019-05-02T01:45:57.637Z,80.54
2019-05-02T01:48:29.348Z,80.69
2019-05-02T01:51:04.517Z,80.95
2019-05-02T01:53:34.452Z,81.48
2019-05-02T01:56:06.744Z,81.54
2019-05-02T01:58:38.419Z,81.55
2019-05-02T02:01:09.609Z,81.15
2019-05-02T02:03:45.548Z,82.11
2019-05-02T02:06:14.936Z,81.73
2019-05-02T02:08:46.235Z,81.82
2019-05-02T02:11:17.605Z,81.88
2019-05-02T02:13:49.007Z,82.07
2019-05-02T02:16:20.243Z,81.92
2019-05-02T02:19:03.504Z,82.16
2019-05-02T02:21:43.029Z,82.76
2019-05-02T02:24:21.068Z,82.45
2019-05-02T02:26:51.902Z,82.29
2019-05-02T02:29:23.343Z,82.08
2019-05-02T02:31:54.640Z,81.95
2019-05-02T02:34:29.252Z,82.06
2019-05-02T02:36:58.998Z,82.26
2019-05-02T02:39:30.346Z,82.59
2019-05-02T02:42:01.649Z,82.65
2019-05-02T02:44:50.645Z,82.98
2019-05-02T02:47:21.895Z,83.05
2019-05-02T02:49:56.092Z,82.99
2019-05-02T02:52:26.141Z,82.92
2019-05-02T02:54:57.708Z,82.59
2019-05-02T02:57:29.008Z,82.32
2019-05-02T03:00:08.116Z,82.25
2019-05-02T03:02:33.333Z,81.95
2019-05-02T03:05:05.450Z,81.65
2019-05-02T03:07:36.847Z,81.81
2019-05-02T03:10:08.641Z,81.77
2019-05-02T03:12:57.951Z,82.10
2019-05-02T03:15:31.710Z,82.34
2019-05-02T03:18:02.907Z,82.97
2019-05-02T03:20:39.845Z,82.97
2019-05-02T03:23:07.463Z,82.52
2019-05-02T03:25:50.732Z,82.35
2019-05-02T03:28:18.106Z,82.20
2019-05-02T03:30:44.843Z,81.66
2019-05-02T03:33:16.086Z,82.13
2019-05-02T03:35:49.627Z,82.76
2019-05-02T03:38:32.179Z,83.24
2019-05-02T03:40:57.620Z,83.01
2019-05-02T03:43:29.199Z,83.44
2019-05-02T03:46:01.167Z,83.91
2019-05-02T03:48:33.383Z,84.09
2019-05-02T03:51:11.991Z,84.01
2019-05-02T03:53:38.342Z,84.13
2019-05-02T03:56:11.393Z,83.82
2019-05-02T03:58:48.604Z,83.51
2019-05-02T04:01:16.595Z,83.27
2019-05-02T04:03:48.375Z,83.91
2019-05-02T04:06:21.025Z,84.30
2019-05-02T04:08:59.157Z,84.26
2019-05-02T04:11:38.037Z,83.25
2019-05-02T04:14:00.188Z,83.30
2019-05-02T04:16:31.493Z,83.97
2019-05-02T04:19:04.220Z,84.62
2019-05-02T04:21:35.826Z,84.82
2019-05-02T04:24:13.443Z,85.09
2019-05-02T04:26:52.684Z,85.03
2019-05-02T04:29:13.624Z,84.62
2019-05-02T04:31:45.289Z,84.31
2019-05-02T04:34:17.950Z,84.15
2019-05-02T04:36:59.425Z,83.92
2019-05-02T04:39:22.538Z,83.31
2019-05-02T04:41:54.333Z,83.17
2019-05-02T04:44:32.315Z,83.22
2019-05-02T04:47:09.409Z,83.03
2019-05-02T04:49:35.638Z,83.21
2019-05-02T04:52:10.481Z,83.46
2019-05-02T04:54:38.883Z,83.53
2019-05-02T04:57:10.551Z,83.51
2019-05-02T04:59:42.004Z,83.27
2019-05-02T05:02:13.237Z,83.07
2019-05-02T05:04:48.722Z,83.35
2019-05-02T05:07:18.028Z,83.46
2019-05-02T05:09:57.073Z,83.61
2019-05-02T05:12:22.235Z,83.51
2019-05-02T05:14:53.436Z,83.05
2019-05-02T05:17:25.078Z,82.73
2019-05-02T05:20:00.205Z,82.69
2019-05-02T05:22:30.696Z,82.59
2019-05-02T05:25:07.565Z,82.34
2019-05-02T05:27:38.894Z,82.50
2019-05-02T05:30:15.518Z,82.27
2019-05-02T05:32:43.611Z,82.66
2019-05-02T05:35:15.006Z,82.54
2019-05-02T05:37:49.128Z,82.58
2019-05-02T05:40:22.572Z,82.88
2019-05-02T05:42:52.446Z,82.97
2019-05-02T05:45:23.695Z,82.51
2019-05-02T05:47:57.577Z,82.14
2019-05-02T05:50:32.216Z,81.76
2019-05-02T05:53:01.298Z,81.50
2019-05-02T05:55:32.546Z,81.84
2019-05-02T05:58:12.283Z,81.68
2019-05-02T06:00:38.005Z,81.45
2019-05-02T06:03:13.888Z,81.37
2019-05-02T06:05:43.165Z,81.54
2019-05-02T06:08:18.350Z,80.76
2019-05-02T06:10:49.407Z,80.75
2019-05-02T06:13:24.012Z,80.91
2019-05-02T06:16:02.126Z,80.01
2019-05-02T06:18:28.536Z,79.21
2019-05-02T06:21:03.282Z,78.29
2019-05-02T06:23:36.464Z,76.86
2019-05-02T06:26:08.010Z,73.65
2019-05-02T06:28:41.679Z,74.30
2019-05-02T06:31:13.353Z,74.18
2019-05-02T06:33:44.868Z,73.78
2019-05-02T06:36:16.550Z,72.28
2019-05-02T06:38:52.244Z,70.80
2019-05-02T06:41:22.180Z,70.42
2019-05-02T06:43:54.645Z,70.00
2019-05-02T06:46:27.516Z,69.71
2019-05-02T06:48:59.279Z,69.47
2019-05-02T06:51:30.951Z,68.65
2019-05-02T06:54:02.514Z,66.08
2019-05-02T06:56:34.107Z,67.09
2019-05-02T06:59:05.596Z,67.32
2019-05-02T07:01:37.186Z,67.05
2019-05-02T07:04:08.648Z,64.33
2019-05-02T07:06:56.130Z,64.26
2019-05-02T07:09:13.894Z,63.95
2019-05-02T07:11:56.689Z,64.88
2019-05-02T07:14:23.365Z,62.70
2019-05-02T07:17:13.638Z,63.44
2019-05-02T07:19:50.530Z,62.52
2019-05-02T07:22:21.882Z,61.11
2019-05-02T07:24:53.102Z,61.79
2019-05-02T07:27:28.385Z,60.38
2019-05-02T07:29:58.019Z,58.94
2019-05-02T07:32:30.785Z,58.48
2019-05-02T07:35:02.297Z,59.22
2019-05-02T07:37:33.910Z,59.26
2019-05-02T07:40:05.843Z,60.17
2019-05-02T07:42:41.737Z,60.48
2019-05-02T07:45:10.808Z,58.29
2019-05-02T07:47:42.593Z,58.19
2019-05-02T07:50:14.577Z,59.19
2019-05-02T07:52:45.897Z,58.80
2019-05-02T07:55:17.118Z,57.60
2019-05-02T07:57:48.410Z,58.85
2019-05-02T08:00:19.824Z,59.61
2019-05-02T08:02:51.014Z,60.08
2019-05-02T08:05:23.874Z,57.92
2019-05-02T08:07:55.623Z,58.31
2019-05-02T08:10:27.162Z,57.78
2019-05-02T08:12:58.526Z,57.67
2019-05-02T08:15:30.053Z,58.71
2019-05-02T08:18:02.001Z,57.76
2019-05-02T08:20:33.870Z,57.32
2019-05-02T08:23:05.473Z,56.10
2019-05-02T08:25:36.689Z,55.40
2019-05-02T08:28:19.678Z,55.91
2019-05-02T08:30:54.487Z,55.52
2019-05-02T08:33:29.405Z,57.04
2019-05-02T08:35:58.812Z,54.66
2019-05-02T08:38:30.047Z,55.12
2019-05-02T08:41:01.519Z,55.01
2019-05-02T08:43:33.291Z,54.06
2019-05-02T08:46:04.834Z,54.38
2019-05-02T08:48:41.894Z,54.11
2019-05-02T08:51:10.523Z,51.34
2019-05-02T08:53:42.068Z,52.29
2019-05-02T08:56:16.015Z,52.06
2019-05-02T08:58:49.874Z,51.90
2019-05-02T09:01:20.379Z,51.48
2019-05-02T09:03:56.667Z,51.66
2019-05-02T09:06:24.792Z,52.27
2019-05-02T09:08:56.102Z,52.78
2019-05-02T09:11:27.440Z,51.12
2019-05-02T09:13:58.792Z,52.13
2019-05-02T09:16:30.957Z,50.97
2019-05-02T09:19:03.542Z,51.02
2019-05-02T09:21:36.040Z,52.86
2019-05-02T09:24:08.343Z,51.08
2019-05-02T09:26:42.574Z,50.55
2019-05-02T09:29:14.127Z,49.18
2019-05-02T09:31:46.162Z,50.40
2019-05-02T09:34:22.880Z,50.11
2019-05-02T09:36:52.989Z,47.50
2019-05-02T09:39:27.363Z,48.86
2019-05-02T09:41:57.097Z,47.83
2019-05-02T09:44:28.370Z,47.00
2019-05-02T09:46:59.721Z,47.89
2019-05-02T09:49:32.413Z,45.43
2019-05-02T09:52:04.364Z,46.65
2019-05-02T09:54:36.997Z,46.09
2019-05-02T09:57:09.617Z,48.65
2019-05-02T09:59:43.380Z,44.42
2019-05-02T10:02:14.877Z,44.26
2019-05-02T10:04:46.707Z,43.49
2019-05-02T10:07:18.022Z,45.28
2019-05-02T10:09:51.779Z,42.82
2019-05-02T10:12:22.954Z,43.46
2019-05-02T10:14:54.407Z,43.12
2019-05-02T10:17:26.246Z,41.79
2019-05-02T10:19:57.655Z,42.25
2019-05-02T10:22:32.281Z,42.44
2019-05-02T10:25:02.673Z,40.06
2019-05-02T10:27:33.884Z,38.63
2019-05-02T10:30:11.887Z,41.36
2019-05-02T10:32:39.603Z,41.35
2019-05-02T10:35:13.091Z,36.97
2019-05-02T10:37:44.346Z,37.92
2019-05-02T10:40:17.226Z,38.43
2019-05-02T10:42:49.338Z,38.42
2019-05-02T10:45:22.538Z,39.39
2019-05-02T10:47:54.432Z,39.97
2019-05-02T10:50:33.487Z,38.49
2019-05-02T10:53:11.024Z,40.47
2019-05-02T10:55:37.954Z,40.19
2019-05-02T10:58:09.456Z,41.14
2019-05-02T11:00:44.862Z,39.59
2019-05-02T11:03:38.153Z,41.24
2019-05-02T11:06:07.875Z,38.67
2019-05-02T11:08:44.027Z,39.78
2019-05-02T11:11:12.752Z,40.40
2019-05-02T11:14:05.739Z,40.07
2019-05-02T11:16:45.099Z,39.47
2019-05-02T11:19:32.315Z,38.65
2019-05-02T11:22:03.651Z,40.33
2019-05-02T11:24:34.844Z,39.27
2019-05-02T11:27:08.184Z,39.68
2019-05-02T11:29:39.082Z,40.46
2019-05-02T11:32:10.401Z,39.77
2019-05-02T11:34:42.174Z,41.34
2019-05-02T11:37:15.198Z,39.82
2019-05-02T11:39:52.022Z,39.78
2019-05-02T11:42:23.298Z,39.81
2019-05-02T11:44:52.964Z,39.01
2019-05-02T11:47:26.547Z,40.48
2019-05-02T11:49:57.241Z,40.77
2019-05-02T11:52:32.956Z,38.50
2019-05-02T11:55:02.148Z,39.30
2019-05-02T11:57:34.026Z,39.57
2019-05-02T12:00:08.844Z,38.37
2019-05-02T12:02:59.069Z,38.75
2019-05-02T12:05:35.831Z,38.66
2019-05-02T12:08:09.314Z,38.93
2019-05-02T12:10:42.220Z,39.19
2019-05-02T12:13:16.049Z,41.71
2019-05-02T12:15:46.282Z,40.11
2019-05-02T12:18:24.322Z,39.23
2019-05-02T12:20:55.648Z,37.62
2019-05-02T12:23:26.868Z,37.87
2019-05-02T12:26:02.841Z,38.50
2019-05-02T12:28:36.575Z,38.38
2019-05-02T12:31:16.622Z,37.41
2019-05-02T12:33:45.778Z,36.00
2019-05-02T12:36:16.989Z,37.64
2019-05-02T12:38:48.553Z,37.71
2019-05-02T12:41:22.996Z,36.08
2019-05-02T12:43:53.400Z,35.51
2019-05-02T12:46:25.098Z,36.12
2019-05-02T12:48:56.908Z,36.54
2019-05-02T12:51:28.104Z,35.25
2019-05-02T12:53:59.401Z,35.59
2019-05-02T12:56:32.454Z,35.30
2019-05-02T12:59:03.987Z,35.55
2019-05-02T13:01:35.239Z,36.19
2019-05-02T13:04:08.604Z,36.21
2019-05-02T13:06:41.997Z,36.51
2019-05-02T13:09:13.247Z,37.05
2019-05-02T13:12:07.342Z,37.40
2019-05-02T13:14:38.643Z,35.97
2019-05-02T13:17:11.999Z,35.63
2019-05-02T13:19:55.516Z,36.76
2019-05-02T13:22:47.850Z,34.77
2019-05-02T13:25:22.506Z,32.54
2019-05-02T13:27:54.082Z,33.28
2019-05-02T13:30:42.519Z,34.37
2019-05-02T13:33:07.224Z,36.15
2019-05-02T13:35:42.651Z,33.92
2019-05-02T13:38:15.561Z,33.37
2019-05-02T13:40:48.519Z,33.16
2019-05-02T13:43:24.024Z,33.84
2019-05-02T13:46:25.350Z,34.38
2019-05-02T13:48:56.536Z,35.40
2019-05-02T13:51:27.810Z,33.20
2019-05-02T13:54:02.357Z,33.41
2019-05-02T13:56:52.595Z,33.33
2019-05-02T13:59:23.688Z,34.66
2019-05-02T14:01:55.497Z,36.24
2019-05-02T14:04:27.086Z,34.87
2019-05-02T14:06:59.157Z,35.73
2019-05-02T14:09:52.673Z,34.44
2019-05-02T14:12:44.496Z,35.84
2019-05-02T14:15:22.151Z,34.80
2019-05-02T14:17:53.342Z,35.05
2019-05-02T14:20:24.766Z,33.93
2019-05-02T14:22:56.061Z,33.83
2019-05-02T14:25:27.273Z,34.48
2019-05-02T14:27:58.597Z,34.69
2019-05-02T14:30:38.738Z,34.39
2019-05-02T14:33:06.322Z,34.22
2019-05-02T14:35:37.761Z,34.59
2019-05-02T14:38:13.388Z,34.49
2019-05-02T14:41:03.040Z,34.86
2019-05-02T14:43:58.076Z,33.88
2019-05-02T14:46:35.381Z,34.88
2019-05-02T14:49:08.718Z,35.90
2019-05-02T14:51:41.778Z,34.74
2019-05-02T14:54:14.574Z,34.99
2019-05-02T14:57:17.099Z,34.40
2019-05-02T14:59:59.297Z,35.90
2019-05-02T15:02:49.017Z,36.64
2019-05-02T15:05:19.417Z,34.36
2019-05-02T15:07:51.867Z,35.40
2019-05-02T15:10:22.991Z,35.82
2019-05-02T15:12:59.493Z,34.07
2019-05-02T15:15:35.286Z,34.78
2019-05-02T15:18:07.859Z,35.22
2019-05-02T15:20:39.485Z,35.65
2019-05-02T15:23:14.357Z,36.25
2019-05-02T15:25:47.183Z,36.00
2019-05-02T15:28:22.915Z,36.06
2019-05-02T15:31:11.841Z,34.61
2019-05-02T15:33:56.322Z,34.30
2019-05-02T15:36:26.810Z,33.36
2019-05-02T15:41:32.691Z,33.80
2019-05-02T15:44:04.010Z,34.34
2019-05-02T15:46:35.342Z,33.37
2019-05-02T15:49:07.193Z,34.07
2019-05-02T15:51:43.709Z,33.77
2019-05-02T15:54:18.827Z,33.92
2019-05-02T15:57:00.709Z,34.12
2019-05-02T15:59:37.601Z,34.36
2019-05-02T16:02:17.480Z,34.50
2019-05-02T16:04:48.193Z,32.66
2019-05-02T16:07:19.436Z,32.77
2019-05-02T16:09:56.309Z,33.38
2019-05-02T16:12:27.131Z,33.04
2019-05-02T16:14:58.807Z,33.00
2019-05-02T16:17:30.047Z,33.07
2019-05-02T16:20:10.760Z,33.15
2019-05-02T16:22:46.266Z,33.13
2019-05-02T16:25:15.455Z,33.42
2019-05-02T16:27:47.344Z,33.47
2019-05-02T16:30:22.410Z,33.82
2019-05-02T16:32:58.748Z,34.48
2019-05-02T16:35:31.675Z,34.04
2019-05-02T16:38:03.538Z,35.01
2019-05-02T16:40:35.138Z,35.42
2019-05-02T16:43:06.376Z,35.40
2019-05-02T16:45:37.759Z,34.72
2019-05-02T16:48:09.087Z,34.54
2019-05-02T16:50:42.047Z,35.42
2019-05-02T16:53:17.138Z,35.68
2019-05-02T16:55:46.963Z,35.92
2019-05-02T16:58:19.485Z,36.83
2019-05-02T17:00:52.664Z,36.72
2019-05-02T17:03:26.969Z,37.19
2019-05-02T17:05:58.232Z,37.62
2019-05-02T17:08:58.675Z,37.85
2019-05-02T17:11:42.061Z,38.99
2019-05-02T17:14:13.549Z,38.57
2019-05-02T17:16:47.125Z,38.98
2019-05-02T17:19:18.184Z,40.35
2019-05-02T17:21:55.405Z,39.67
2019-05-02T17:24:26.186Z,41.72
2019-05-02T17:26:55.887Z,43.10
2019-05-02T17:29:27.204Z,44.09
2019-05-02T17:32:02.198Z,45.53
2019-05-02T17:34:35.050Z,45.80
2019-05-02T17:37:11.490Z,46.50
2019-05-02T17:39:42.699Z,47.05
2019-05-02T17:42:17.087Z,46.86
2019-05-02T17:44:47.425Z,47.36
2019-05-02T17:47:18.947Z,47.97
2019-05-02T17:49:52.863Z,48.29
2019-05-02T17:52:32.914Z,49.16
2019-05-02T17:55:04.806Z,50.25
2019-05-02T17:57:41.883Z,50.05
2019-05-02T18:00:18.992Z,49.55
2019-05-02T18:02:51.881Z,50.02
2019-05-02T18:05:26.535Z,50.44
2019-05-02T18:07:56.855Z,49.84
2019-05-02T18:10:29.011Z,50.22
2019-05-02T18:13:02.527Z,51.15
2019-05-02T18:15:34.785Z,50.79
2019-05-02T18:18:08.048Z,50.87
2019-05-02T18:20:42.897Z,50.99
2019-05-02T18:23:12.820Z,52.17
2019-05-02T18:25:44.103Z,52.47
2019-05-02T18:28:22.258Z,52.30
2019-05-02T18:30:50.147Z,52.22
2019-05-02T18:33:23.480Z,52.10
2019-05-02T18:35:54.773Z,51.81
2019-05-02T18:38:26.428Z,53.08
2019-05-02T18:41:00.241Z,53.78
2019-05-02T18:43:31.513Z,53.79
2019-05-02T18:46:07.516Z,53.97
2019-05-02T18:48:36.588Z,53.30
2019-05-02T18:51:09.057Z,53.36
2019-05-02T18:53:42.246Z,53.47
2019-05-02T18:56:13.419Z,53.24
2019-05-02T18:58:45.367Z,53.68
2019-05-02T19:01:18.441Z,54.38
2019-05-02T19:03:52.568Z,54.60
2019-05-02T19:06:23.037Z,54.47
2019-05-02T19:08:56.888Z,54.64
2019-05-02T19:11:33.673Z,54.45
2019-05-02T19:14:02.701Z,54.37
2019-05-02T19:16:34.044Z,53.82
2019-05-02T19:19:05.660Z,53.82
2019-05-02T19:21:39.463Z,54.00
2019-05-02T19:24:10.216Z,54.45
2019-05-02T19:26:49.007Z,54.63
2019-05-02T19:29:31.874Z,55.67
2019-05-02T19:32:05.287Z,56.63
2019-05-02T19:34:36.633Z,56.74
2019-05-02T19:37:07.983Z,57.05
2019-05-02T19:39:47.201Z,56.13
2019-05-02T19:42:17.143Z,57.10
2019-05-02T19:44:46.015Z,57.78
2019-05-02T19:47:17.703Z,58.05
2019-05-02T19:49:52.412Z,57.15
2019-05-02T19:52:22.275Z,57.75
2019-05-02T19:54:53.602Z,57.96
2019-05-02T19:57:26.383Z,57.51
2019-05-02T20:00:02.747Z,57.52
2019-05-02T20:02:37.343Z,57.12
2019-05-02T20:05:07.215Z,57.90
2019-05-02T20:07:38.617Z,57.64
2019-05-02T20:10:12.291Z,57.13
2019-05-02T20:12:48.421Z,57.44
2019-05-02T20:15:25.458Z,57.62
2019-05-02T20:17:55.330Z,58.12
2019-05-02T20:20:54.946Z,59.10
2019-05-02T20:23:31.671Z,59.03
2019-05-02T20:25:59.507Z,58.89
2019-05-02T20:28:31.762Z,59.34
2019-05-02T20:31:03.268Z,59.67
2019-05-02T20:33:34.549Z,59.27
2019-05-02T20:36:05.863Z,59.17
2019-05-02T20:38:37.617Z,59.05
2019-05-02T20:41:09.010Z,58.78
2019-05-02T20:43:42.925Z,58.60
2019-05-02T20:46:13.652Z,58.08
2019-05-02T20:48:45.085Z,57.90
2019-05-02T20:51:16.394Z,57.72
2019-05-02T20:53:47.618Z,57.58
2019-05-02T20:56:18.834Z,57.29
2019-05-02T20:58:50.091Z,57.52
2019-05-02T21:01:21.742Z,57.91
2019-05-02T21:03:53.153Z,58.57
2019-05-02T21:06:47.487Z,59.19
2019-05-02T21:09:39.189Z,58.54
2019-05-02T21:12:12.472Z,58.64
2019-05-02T21:14:43.382Z,58.98
2019-05-02T21:17:14.843Z,58.10
2019-05-02T21:19:46.354Z,58.85
2019-05-02T21:22:22.227Z,58.56
2019-05-02T21:24:53.783Z,59.22
2019-05-02T21:27:25.124Z,58.69
2019-05-02T21:29:56.341Z,58.39
2019-05-02T21:32:27.552Z,58.09
2019-05-02T21:34:58.772Z,57.50
2019-05-02T21:37:31.828Z,57.14
2019-05-02T21:40:02.985Z,56.75
2019-05-02T21:42:34.361Z,56.73
2019-05-02T21:45:06.095Z,56.89
2019-05-02T21:47:37.435Z,58.52
2019-05-02T21:50:19.017Z,58.82
2019-05-02T21:53:10.349Z,59.66
2019-05-02T21:55:52.090Z,59.16
2019-05-02T21:58:25.604Z,59.71
2019-05-02T22:01:02.412Z,59.64
2019-05-02T22:03:33.908Z,59.72
2019-05-02T22:06:06.042Z,59.73
2019-05-02T22:08:37.512Z,59.74
2019-05-02T22:11:08.882Z,60.25
2019-05-02T22:13:42.167Z,61.04
2019-05-02T22:16:13.422Z,61.06
2019-05-02T22:18:44.775Z,61.34
2019-05-02T22:21:16.048Z,60.72
2019-05-02T22:23:47.252Z,60.90
2019-05-02T22:26:18.647Z,59.70
2019-05-02T22:28:49.873Z,60.44
2019-05-02T22:31:22.687Z,59.99
2019-05-02T22:33:54.121Z,60.35
2019-05-02T22:36:26.074Z,60.65
2019-05-02T22:39:31.735Z,61.12
2019-05-02T22:42:04.617Z,61.25
2019-05-02T22:44:36.454Z,60.68
2019-05-02T22:47:07.686Z,60.96
2019-05-02T22:49:39.104Z,60.41
2019-05-02T22:52:12.155Z,60.18
2019-05-02T22:54:43.559Z,60.34
2019-05-02T22:57:15.300Z,60.26
2019-05-02T22:59:46.713Z,60.38
2019-05-02T23:02:18.290Z,60.27
2019-05-02T23:04:49.596Z,60.04
2019-05-02T23:07:22.176Z,60.19
2019-05-02T23:09:53.674Z,60.65
2019-05-02T23:12:25.163Z,60.40
2019-05-02T23:14:56.640Z,61.07
2019-05-02T23:17:27.852Z,61.66
2019-05-02T23:19:59.538Z,62.72
2019-05-02T23:22:32.330Z,63.28
2019-05-02T23:25:14.316Z,62.84
2019-05-02T23:27:52.327Z,62.80
2019-05-02T23:30:25.264Z,62.08
2019-05-02T23:32:56.968Z,61.70
2019-05-02T23:35:28.321Z,62.13
2019-05-02T23:38:01.997Z,62.18
2019-05-02T23:40:33.381Z,62.30
2019-05-02T23:43:04.702Z,62.71
2019-05-02T23:45:36.081Z,62.97
2019-05-02T23:48:07.362Z,62.89
2019-05-02T23:50:39.242Z,65.52
2019-05-02T23:53:12.713Z,66.87
2019-05-02T23:55:43.679Z,66.17
2019-05-02T23:58:14.851Z,66.47
